Time;durP1;ratioP1;P1;durP2;ratioP2;P2;SDS_P1;SDS_P2;PMS_P1;PMS_P2;Temp;Humidity;BMP_temperature;BMP_pressure;BME280_temperature;BME280_humidity;BME280_pressure;Samples;Min_cycle;Max_cycle;Signal;HPM_P1;HPM_P2
2022/02/06 00:00:34;;;;;;;13.30;9.70;;;5.60;99.90;;;;;;4960620;28;20027;-74
2022/02/06 00:03:00;;;;;;;15.77;9.55;;;5.60;99.90;;;;;;4957939;28;20062;-75
2022/02/06 00:05:25;;;;;;;13.90;8.82;;;5.60;99.90;;;;;;4963687;28;20485;-74
2022/02/06 00:07:51;;;;;;;17.40;8.88;;;5.70;99.90;;;;;;4960300;28;20398;-74
2022/02/06 00:10:18;;;;;;;13.07;8.70;;;5.70;99.90;;;;;;4960702;28;20086;-74
2022/02/06 00:12:44;;;;;;;15.02;9.07;;;5.70;99.90;;;;;;4959941;28;20055;-74
2022/02/06 00:15:10;;;;;;;17.10;8.50;;;5.70;99.90;;;;;;4968911;28;20072;-75
2022/02/06 00:17:36;;;;;;;18.50;8.98;;;5.70;99.90;;;;;;4959579;28;20027;-74
2022/02/06 00:20:03;;;;;;;11.82;8.70;;;5.70;99.90;;;;;;4958789;28;20031;-75
2022/02/06 00:22:43;;;;;;;14.32;8.38;;;5.70;99.90;;;;;;4959962;28;20057;-75
2022/02/06 00:28:01;;;;;;;14.68;8.40;;;5.70;99.90;;;;;;4958995;28;20481;-74
2022/02/06 00:30:34;;;;;;;12.38;7.88;;;5.70;99.90;;;;;;4943922;28;20031;-74
2022/02/06 00:33:12;;;;;;;12.65;7.82;;;5.70;99.90;;;;;;4949429;28;20043;-73
2022/02/06 00:43:21;;;;;;;12.48;7.80;;;5.70;99.90;;;;;;4958193;28;20031;-74
2022/02/06 00:45:47;;;;;;;10.40;7.30;;;5.70;99.90;;;;;;4959929;28;20396;-74
2022/02/06 00:48:18;;;;;;;13.55;7.55;;;5.70;99.90;;;;;;4960737;28;20595;-73
2022/02/06 00:50:47;;;;;;;16.17;7.97;;;5.70;99.90;;;;;;4960673;28;20655;-73
2022/02/06 00:53:18;;;;;;;14.38;8.43;;;5.70;99.90;;;;;;4958553;28;20031;-74
2022/02/06 00:55:47;;;;;;;13.80;8.00;;;5.70;99.90;;;;;;4960160;28;20045;-73
2022/02/06 00:58:12;;;;;;;16.55;8.73;;;5.70;99.90;;;;;;4957103;28;20101;-74
2022/02/06 01:00:38;;;;;;;12.52;7.93;;;5.80;99.90;;;;;;4974694;28;20517;-73
2022/02/06 01:03:04;;;;;;;11.63;7.78;;;5.80;99.90;;;;;;4942228;28;20031;-73
2022/02/06 01:05:30;;;;;;;11.30;7.85;;;5.80;99.90;;;;;;4960726;28;20066;-74
2022/02/06 01:07:55;;;;;;;14.30;8.40;;;5.80;99.90;;;;;;4959847;28;20041;-74
2022/02/06 01:10:25;;;;;;;16.75;7.97;;;5.70;99.90;;;;;;4959849;28;20113;-73
2022/02/06 01:13:13;;;;;;;12.57;8.10;;;5.80;99.90;;;;;;4959986;28;20125;-73
2022/02/06 01:15:45;;;;;;;13.57;8.43;;;5.70;99.90;;;;;;4960155;28;20481;-74
2022/02/06 01:18:19;;;;;;;16.90;8.88;;;5.70;99.90;;;;;;4959956;28;20042;-73
2022/02/06 01:20:54;;;;;;;17.10;9.13;;;5.80;99.90;;;;;;4960222;28;20069;-73
2022/02/06 01:23:28;;;;;;;14.25;8.77;;;5.70;99.90;;;;;;4960649;28;20447;-74
2022/02/06 01:26:15;;;;;;;15.90;9.02;;;5.80;99.90;;;;;;4964970;28;20029;-74
2022/02/06 01:28:47;;;;;;;13.73;8.50;;;5.80;99.90;;;;;;4958639;28;20070;-73
2022/02/06 01:31:35;;;;;;;14.68;8.77;;;5.80;99.90;;;;;;4958425;28;20456;-73
2022/02/06 01:34:03;;;;;;;13.07;8.27;;;5.80;99.90;;;;;;4962101;28;20066;-73
2022/02/06 01:36:42;;;;;;;12.98;8.95;;;5.80;99.90;;;;;;4959685;28;20033;-74
2022/02/06 01:41:46;;;;;;;15.52;8.40;;;5.80;99.90;;;;;;4962674;28;20034;-74
2022/02/06 01:44:39;;;;;;;13.38;8.50;;;5.80;99.90;;;;;;4964725;28;20026;-73
2022/02/06 02:01:12;;;;;;;16.48;8.45;;;5.90;99.90;;;;;;4961533;28;20520;-73
2022/02/06 02:03:47;;;;;;;12.35;7.72;;;6.00;99.90;;;;;;4968540;28;20121;-73
2022/02/06 02:07:06;;;;;;;15.30;8.30;;;5.90;99.90;;;;;;4962288;28;20086;-75
2022/02/06 02:27:51;;;;;;;12.35;7.10;;;6.00;99.90;;;;;;4963896;28;20030;-75
2022/02/06 02:30:35;;;;;;;12.60;6.75;;;6.00;99.90;;;;;;4961655;28;20478;-72
2022/02/06 02:44:39;;;;;;;10.70;6.80;;;6.00;99.90;;;;;;4962729;28;20057;-73
2022/02/06 02:46:54;;;;;;;13.70;6.78;;;6.00;99.90;;;;;;4962731;28;20028;-73
2022/02/06 02:49:22;;;;;;;12.30;6.68;;;6.00;99.90;;;;;;4961515;28;20031;-73
2022/02/06 02:51:50;;;;;;;12.27;6.28;;;6.00;99.90;;;;;;4962254;28;20109;-73
2022/02/06 02:54:23;;;;;;;13.60;6.30;;;6.00;99.90;;;;;;4963123;28;20027;-73
2022/02/06 02:57:03;;;;;;;12.20;6.93;;;6.00;99.90;;;;;;4962745;28;20370;-73
2022/02/06 03:00:35;;;;;;;12.90;6.65;;;6.10;99.90;;;;;;4961468;28;20477;-74
2022/02/06 03:02:23;;;;;;;13.07;6.60;;;6.10;99.90;;;;;;4951009;28;20047;-73
2022/02/06 03:04:54;;;;;;;12.27;6.88;;;6.10;99.90;;;;;;4961940;28;20026;-73
2022/02/06 03:07:19;;;;;;;10.40;6.65;;;6.10;99.90;;;;;;4964063;28;20085;-73
2022/02/06 03:09:46;;;;;;;9.95;6.43;;;6.10;99.90;;;;;;4962020;28;20031;-74
2022/02/06 03:12:15;;;;;;;13.43;6.78;;;6.10;99.90;;;;;;4963089;28;20037;-73
2022/02/06 03:14:47;;;;;;;10.32;5.85;;;6.20;99.90;;;;;;4961804;28;20031;-74
2022/02/06 03:17:21;;;;;;;9.98;6.20;;;6.20;99.90;;;;;;4960728;28;20035;-73
2022/02/06 03:19:54;;;;;;;10.48;6.80;;;6.10;99.90;;;;;;4962140;28;20027;-74
2022/02/06 03:22:24;;;;;;;9.75;6.10;;;6.20;99.90;;;;;;4961427;28;20110;-74
2022/02/06 03:24:55;;;;;;;10.35;6.65;;;6.20;99.90;;;;;;4961681;28;20073;-73
2022/02/06 03:27:21;;;;;;;10.52;6.05;;;6.20;99.90;;;;;;4960337;28;20121;-75
2022/02/06 03:29:47;;;;;;;12.07;6.47;;;6.20;99.90;;;;;;4959145;28;20514;-74
2022/02/06 03:32:12;;;;;;;13.70;6.50;;;6.20;99.90;;;;;;4966223;28;20564;-73
2022/02/06 03:34:38;;;;;;;13.23;7.20;;;6.20;99.90;;;;;;4958782;28;20030;-73
2022/02/06 03:37:04;;;;;;;12.57;7.45;;;6.20;99.90;;;;;;4961001;28;20026;-74
2022/02/06 03:39:34;;;;;;;11.73;6.65;;;6.20;99.90;;;;;;4960237;28;20070;-74
2022/02/06 03:42:10;;;;;;;13.15;6.90;;;6.20;99.90;;;;;;4959153;28;20450;-74
2022/02/06 03:44:44;;;;;;;11.55;7.18;;;6.30;99.90;;;;;;4959937;28;20077;-74
2022/02/06 03:47:18;;;;;;;13.82;6.82;;;6.30;99.90;;;;;;4960326;28;20066;-75
2022/02/06 03:52:26;;;;;;;10.68;6.30;;;6.30;99.90;;;;;;4957621;28;20477;-74
2022/02/06 03:54:52;;;;;;;14.57;6.97;;;6.30;99.90;;;;;;4960789;28;20055;-74
2022/02/06 03:57:18;;;;;;;10.10;6.88;;;6.30;99.90;;;;;;4957579;28;20069;-75
2022/02/06 03:59:43;;;;;;;16.80;6.65;;;6.30;99.90;;;;;;4973847;28;20035;-74
2022/02/06 04:02:09;;;;;;;13.50;6.80;;;6.30;99.90;;;;;;4958794;28;20039;-74
2022/02/06 04:04:35;;;;;;;12.88;6.45;;;6.30;99.90;;;;;;4958975;28;20429;-74
2022/02/06 04:07:09;;;;;;;10.80;6.25;;;6.30;99.90;;;;;;4960410;28;20113;-74
2022/02/06 04:09:50;;;;;;;10.00;5.90;;;6.30;99.90;;;;;;4961369;28;20070;-74
2022/02/06 04:12:18;;;;;;;11.85;5.82;;;6.40;99.90;;;;;;4959699;28;20363;-74
2022/02/06 04:14:55;;;;;;;10.65;5.38;;;6.40;99.90;;;;;;4961670;28;20417;-74
2022/02/06 04:17:25;;;;;;;10.52;5.60;;;6.40;99.90;;;;;;4959435;28;20031;-76
2022/02/06 04:19:51;;;;;;;9.03;4.97;;;6.40;99.90;;;;;;4962097;28;20027;-74
2022/02/06 04:22:18;;;;;;;12.25;5.75;;;6.40;99.90;;;;;;4965812;28;20503;-73
2022/02/06 04:24:44;;;;;;;11.85;5.38;;;6.40;99.90;;;;;;4961729;28;20481;-73
2022/02/06 04:27:10;;;;;;;8.85;4.97;;;6.40;99.90;;;;;;4960250;28;20392;-73
2022/02/06 04:29:36;;;;;;;11.88;5.63;;;6.40;99.90;;;;;;4960810;28;20646;-74
2022/02/06 04:32:07;;;;;;;9.43;5.55;;;6.40;99.90;;;;;;4958968;28;20035;-74
2022/02/06 04:34:32;;;;;;;;;;;6.40;99.90;;;;;;4960665;28;20055;-74
2022/02/06 04:37:07;;;;;;;10.00;5.90;;;6.40;99.90;;;;;;4960647;28;19941;-74
2022/02/06 05:14:18;;;;;;;10.85;6.93;;;6.60;99.90;;;;;;4968565;28;20450;-74
2022/02/06 05:30:00;;;;;;;11.38;6.75;;;6.60;99.90;;;;;;4966869;28;20234;-75
2022/02/06 05:32:47;;;;;;;12.32;6.78;;;6.60;99.90;;;;;;4965406;28;20062;-74
2022/02/06 05:35:14;;;;;;;12.90;6.22;;;6.70;99.90;;;;;;4967856;28;20034;-74
2022/02/06 05:37:39;;;;;;;9.75;6.47;;;6.70;99.90;;;;;;4965330;28;20031;-74
2022/02/06 05:40:06;;;;;;;10.88;6.13;;;6.70;99.90;;;;;;4966728;28;20090;-74
2022/02/06 05:42:31;;;;;;;11.95;5.65;;;6.70;99.90;;;;;;4965991;28;20043;-75
2022/02/06 05:44:57;;;;;;;11.02;5.72;;;6.70;99.90;;;;;;4968501;28;20105;-75
2022/02/06 05:47:25;;;;;;;9.07;5.75;;;6.70;99.90;;;;;;4962793;28;20038;-74
2022/02/06 05:49:51;;;;;;;9.15;5.30;;;6.70;99.90;;;;;;4972311;28;20400;-75
2022/02/06 05:52:18;;;;;;;10.90;4.55;;;6.70;99.90;;;;;;4962921;28;20649;-73
2022/02/06 05:54:44;;;;;;;6.68;3.72;;;6.80;99.90;;;;;;4966364;28;20473;-73
2022/02/06 05:57:10;;;;;;;6.95;4.18;;;6.70;99.90;;;;;;4955627;28;20126;-74
2022/02/06 05:59:36;;;;;;;7.90;3.45;;;6.80;99.90;;;;;;4965880;28;20501;-74
2022/02/06 06:02:01;;;;;;;8.30;3.60;;;6.80;99.90;;;;;;4965449;28;20027;-73
2022/02/06 06:04:27;;;;;;;6.88;3.15;;;6.80;99.90;;;;;;4971153;28;20027;-73
2022/02/06 06:06:53;;;;;;;6.93;3.30;;;6.80;99.90;;;;;;4964326;28;20037;-74
2022/02/06 06:09:19;;;;;;;9.40;3.05;;;6.80;99.90;;;;;;4966128;28;20037;-74
2022/02/06 06:11:45;;;;;;;9.15;3.53;;;6.80;99.90;;;;;;4963788;28;20371;-74
2022/02/06 06:14:11;;;;;;;11.82;3.60;;;6.80;99.90;;;;;;4948414;28;20086;-74
2022/02/06 06:16:36;;;;;;;5.28;3.20;;;6.80;99.90;;;;;;4967521;28;20468;-74
2022/02/06 06:19:04;;;;;;;5.63;2.80;;;6.80;99.90;;;;;;4964935;28;20504;-75
2022/02/06 06:21:35;;;;;;;6.38;2.53;;;6.80;99.90;;;;;;4965847;28;20393;-74
2022/02/06 06:24:00;;;;;;;11.27;2.90;;;6.80;99.90;;;;;;4972306;28;20037;-75
2022/02/06 06:26:29;;;;;;;8.15;2.88;;;6.80;99.90;;;;;;4962166;28;20035;-74
2022/02/06 06:28:55;;;;;;;8.75;2.20;;;6.80;99.90;;;;;;4960135;28;20027;-75
2022/02/06 06:31:21;;;;;;;3.20;1.58;;;6.80;99.90;;;;;;4962951;28;20030;-75
2022/02/06 06:33:47;;;;;;;5.10;1.77;;;6.80;99.90;;;;;;4962600;28;20058;-75
2022/02/06 06:36:13;;;;;;;5.15;1.60;;;6.80;99.90;;;;;;4963090;28;20035;-75
2022/02/06 06:38:38;;;;;;;6.50;1.50;;;6.80;99.90;;;;;;4995378;23;20539;-75
2022/02/06 06:41:04;;;;;;;8.85;1.63;;;6.80;99.90;;;;;;5000421;28;20038;-75
2022/02/06 06:43:31;;;;;;;7.15;1.77;;;6.80;99.90;;;;;;5000801;28;20030;-74
2022/02/06 06:45:57;;;;;;;3.33;1.50;;;6.80;99.90;;;;;;5008919;28;20157;-74
2022/02/06 06:48:23;;;;;;;6.32;1.30;;;6.80;99.90;;;;;;5000447;28;20741;-74
2022/02/06 06:50:49;;;;;;;7.72;1.35;;;6.80;99.90;;;;;;5002330;28;20109;-74
2022/02/06 06:53:15;;;;;;;6.68;1.35;;;6.80;99.90;;;;;;4999827;28;20395;-73
2022/02/06 06:55:44;;;;;;;4.75;1.40;;;6.80;99.90;;;;;;4998629;28;20030;-73
2022/02/06 06:58:24;;;;;;;4.72;1.30;;;6.70;99.90;;;;;;4999222;28;20026;-75
2022/02/06 07:03:22;;;;;;;6.82;1.13;;;6.70;99.90;;;;;;5000753;28;20037;-74
2022/02/06 07:05:49;;;;;;;2.90;1.00;;;6.70;99.90;;;;;;5000770;28;20644;-74
2022/02/06 07:08:16;;;;;;;6.60;1.20;;;6.60;99.90;;;;;;4999168;28;20056;-74
2022/02/06 07:10:45;;;;;;;6.80;1.25;;;6.60;99.90;;;;;;4998379;28;20021;-74
2022/02/06 07:13:13;;;;;;;6.32;1.23;;;6.50;99.90;;;;;;4998047;28;20038;-75
2022/02/06 07:15:41;;;;;;;4.93;1.15;;;6.50;99.90;;;;;;5002599;28;20057;-74
2022/02/06 07:18:07;;;;;;;7.90;1.27;;;6.50;99.90;;;;;;5001542;28;20037;-74
2022/02/06 07:20:35;;;;;;;8.38;1.13;;;6.50;99.90;;;;;;5003497;28;20022;-75
2022/02/06 07:23:01;;;;;;;7.32;1.30;;;6.50;99.90;;;;;;5000990;28;20033;-74
2022/02/06 07:25:27;;;;;;;6.15;1.08;;;6.50;99.90;;;;;;5000563;28;20107;-74
2022/02/06 07:27:56;;;;;;;4.22;1.08;;;6.40;99.90;;;;;;4998948;28;20034;-74
2022/02/06 07:30:22;;;;;;;4.60;1.13;;;6.40;99.90;;;;;;5001223;28;20036;-75
2022/02/06 07:32:48;;;;;;;4.35;1.30;;;6.40;99.90;;;;;;4998407;28;20361;-74
2022/02/06 07:35:15;;;;;;;8.05;1.27;;;6.40;99.90;;;;;;5000549;28;20027;-74
2022/02/06 07:37:58;;;;;;;9.75;1.30;;;6.40;99.90;;;;;;4999639;28;20617;-74
2022/02/06 07:40:24;;;;;;;4.85;1.10;;;6.40;99.90;;;;;;4998873;28;20120;-74
2022/02/06 07:42:50;;;;;;;7.70;1.10;;;6.40;99.90;;;;;;4999465;28;20034;-74
2022/02/06 07:45:16;;;;;;;7.68;1.15;;;6.40;99.90;;;;;;4999744;28;20041;-75
2022/02/06 07:47:44;;;;;;;5.03;1.13;;;6.30;99.90;;;;;;5000299;28;20022;-75
2022/02/06 07:50:11;;;;;;;5.20;1.10;;;6.40;99.90;;;;;;4995371;28;20112;-75
2022/02/06 07:52:38;;;;;;;3.30;1.02;;;6.40;99.90;;;;;;4999524;28;20115;-73
2022/02/06 07:55:07;;;;;;;5.97;1.20;;;6.30;99.90;;;;;;4983021;28;20049;-74
2022/02/06 07:57:34;;;;;;;7.47;0.88;;;6.30;99.90;;;;;;4984577;28;20121;-74
2022/02/06 08:00:00;;;;;;;5.82;0.60;;;6.30;99.90;;;;;;4996959;28;20462;-75
2022/02/06 08:02:26;;;;;;;3.10;0.75;;;6.30;99.90;;;;;;4999359;28;20373;-74
2022/02/06 08:04:52;;;;;;;1.35;0.52;;;6.30;99.90;;;;;;4982985;28;20029;-73
2022/02/06 08:07:18;;;;;;;2.40;0.65;;;6.30;99.90;;;;;;4980531;28;20034;-75
2022/02/06 08:12:11;;;;;;;4.13;0.80;;;6.30;99.90;;;;;;4999983;28;20034;-75
2022/02/06 08:14:54;;;;;;;2.53;0.70;;;6.20;99.90;;;;;;4999906;28;20380;-74
2022/02/06 08:17:25;;;;;;;2.05;0.45;;;6.20;99.90;;;;;;4998378;28;20034;-74
2022/02/06 08:19:52;;;;;;;4.88;0.85;;;6.20;99.90;;;;;;4981341;28;20034;-74
2022/02/06 08:22:19;;;;;;;3.88;0.80;;;6.20;99.90;;;;;;4996582;28;20507;-74
2022/02/06 08:24:45;;;;;;;4.00;0.85;;;6.20;99.90;;;;;;4998024;28;20412;-74
2022/02/06 08:27:10;;;;;;;2.90;0.60;;;6.20;99.90;;;;;;4996582;28;20066;-74
2022/02/06 08:29:39;;;;;;;3.10;0.50;;;6.20;99.90;;;;;;5006149;28;20030;-75
2022/02/06 08:32:06;;;;;;;3.13;0.50;;;6.20;99.90;;;;;;5011354;28;20096;-74
2022/02/06 08:34:32;;;;;;;2.00;0.52;;;6.20;99.90;;;;;;4982479;28;20029;-73
2022/02/06 08:37:22;;;;;;;1.58;0.43;;;6.30;99.90;;;;;;4998588;28;20036;-73
2022/02/06 08:39:48;;;;;;;2.97;1.38;;;6.30;99.90;;;;;;4995665;28;20664;-73
2022/02/06 08:42:15;;;;;;;3.05;0.40;;;6.30;99.90;;;;;;5000128;28;20331;-74
2022/02/06 08:44:43;;;;;;;1.80;0.40;;;6.30;99.90;;;;;;4997159;28;20145;-75
2022/02/06 08:47:11;;;;;;;1.83;0.60;;;6.30;99.90;;;;;;4997241;28;20113;-76
2022/02/06 08:49:38;;;;;;;0.90;0.52;;;6.30;99.90;;;;;;4998747;28;20025;-74
2022/02/06 08:52:05;;;;;;;3.20;0.63;;;6.30;99.90;;;;;;5000731;28;20109;-74
2022/02/06 08:54:33;;;;;;;1.48;0.40;;;6.30;99.90;;;;;;4996928;28;20038;-74
2022/02/06 08:57:02;;;;;;;2.63;0.60;;;6.40;99.90;;;;;;5000966;28;20097;-75
2022/02/06 08:59:30;;;;;;;1.70;0.60;;;6.40;99.90;;;;;;5000601;28;20638;-75
2022/02/06 09:02:01;;;;;;;3.50;1.55;;;6.40;99.90;;;;;;4986048;28;20050;-74
2022/02/06 09:04:28;;;;;;;2.75;1.13;;;6.40;99.90;;;;;;5002521;28;20102;-74
2022/02/06 09:06:58;;;;;;;1.70;0.85;;;6.40;99.90;;;;;;5002240;28;20021;-76
2022/02/06 09:09:25;;;;;;;2.40;0.60;;;6.40;99.90;;;;;;4997179;28;20384;-75
2022/02/06 09:11:52;;;;;;;3.53;0.63;;;6.40;99.90;;;;;;5000642;28;20029;-74
2022/02/06 09:14:23;;;;;;;1.30;0.38;;;6.40;99.90;;;;;;4980307;28;20400;-74
2022/02/06 09:16:50;;;;;;;1.95;0.40;;;6.40;99.90;;;;;;4997877;28;20052;-75
2022/02/06 09:19:17;;;;;;;2.08;0.60;;;6.40;99.90;;;;;;4996667;28;20377;-75
2022/02/06 09:21:43;;;;;;;3.65;0.80;;;6.40;99.90;;;;;;4995080;28;20121;-74
2022/02/06 09:24:09;;;;;;;3.05;0.85;;;6.40;99.90;;;;;;4997258;28;20117;-74
2022/02/06 09:26:37;;;;;;;1.48;0.35;;;6.50;99.90;;;;;;4998781;28;20142;-75
2022/02/06 09:29:04;;;;;;;2.60;0.50;;;6.40;99.90;;;;;;4999976;28;20432;-75
2022/02/06 09:31:30;;;;;;;1.27;0.63;;;6.50;99.90;;;;;;4999796;28;20076;-75
2022/02/06 09:36:22;;;;;;;4.78;1.42;;;6.50;99.90;;;;;;4997965;28;20434;-75
2022/02/06 09:38:50;;;;;;;1.95;0.73;;;6.50;99.90;;;;;;4998328;28;20065;-75
2022/02/06 09:41:16;;;;;;;3.83;0.90;;;6.50;99.90;;;;;;4996592;28;20126;-75
2022/02/06 09:43:44;;;;;;;3.40;0.90;;;6.50;99.90;;;;;;4998198;28;20328;-75
2022/02/06 09:46:13;;;;;;;1.90;0.70;;;6.50;99.90;;;;;;5000820;28;20026;-75
2022/02/06 09:48:39;;;;;;;3.45;0.82;;;6.50;99.90;;;;;;5000589;28;20112;-76
2022/02/06 09:51:07;;;;;;;3.10;0.45;;;6.50;99.90;;;;;;4998851;28;20101;-75
2022/02/06 09:53:35;;;;;;;2.67;0.40;;;6.50;99.90;;;;;;4997190;28;20488;-77
2022/02/06 09:56:07;;;;;;;2.45;0.38;;;6.50;99.90;;;;;;4995807;28;20103;-75
2022/02/06 10:01:07;;;;;;;1.00;0.47;;;6.50;99.90;;;;;;5002311;28;20511;-76
2022/02/06 10:03:48;;;;;;;2.25;0.60;;;6.60;99.90;;;;;;5002528;28;20041;-75
2022/02/06 10:06:52;;;;;;;2.23;0.60;;;6.60;99.90;;;;;;5003196;28;20073;-73
2022/02/06 10:09:30;;;;;;;1.52;0.75;;;6.50;99.90;;;;;;4997606;28;20053;-74
2022/02/06 10:11:57;;;;;;;1.40;0.70;;;6.50;99.90;;;;;;4985790;28;20435;-74
2022/02/06 10:14:23;;;;;;;3.10;0.68;;;6.50;99.90;;;;;;4994733;28;20030;-78
2022/02/06 10:16:53;;;;;;;2.22;0.73;;;6.50;99.90;;;;;;5014722;28;20455;-73
2022/02/06 10:19:18;;;;;;;2.53;0.70;;;6.40;99.90;;;;;;5001029;28;20018;-73
2022/02/06 10:21:46;;;;;;;2.00;0.60;;;6.50;99.90;;;;;;4999612;28;20442;-74
2022/02/06 10:24:22;;;;;;;1.90;0.70;;;6.50;99.90;;;;;;5005469;28;20053;-72
2022/02/06 10:29:43;;;;;;;1.95;0.73;;;6.50;99.90;;;;;;5006796;28;20029;-73
2022/02/06 10:32:16;;;;;;;2.33;0.82;;;6.50;99.90;;;;;;4984333;28;20076;-75
2022/02/06 10:34:42;;;;;;;3.25;0.70;;;6.50;99.90;;;;;;5000913;28;20037;-73
2022/02/06 10:37:16;;;;;;;1.83;0.70;;;6.50;99.90;;;;;;5002193;28;20037;-74
2022/02/06 10:40:05;;;;;;;2.33;1.05;;;6.50;99.90;;;;;;5000637;28;20034;-74
2022/02/06 10:42:36;;;;;;;4.78;1.80;;;6.50;99.90;;;;;;5002724;28;20077;-73
2022/02/06 10:45:16;;;;;;;3.63;1.77;;;6.60;99.90;;;;;;5000279;28;20060;-73
2022/02/06 10:47:43;;;;;;;4.30;1.40;;;6.60;99.90;;;;;;5001287;28;20321;-74
2022/02/06 10:50:11;;;;;;;2.17;1.17;;;6.50;99.90;;;;;;5002193;28;20030;-73
2022/02/06 10:52:38;;;;;;;3.85;0.90;;;6.50;99.90;;;;;;4997681;28;20026;-74
2022/02/06 10:55:05;;;;;;;2.10;0.93;;;6.60;99.90;;;;;;4983400;28;20075;-74
2022/02/06 10:57:30;;;;;;;2.40;0.80;;;6.60;99.90;;;;;;5000641;28;20046;-74
2022/02/06 10:59:57;;;;;;;1.50;0.88;;;6.70;99.90;;;;;;5002116;28;20026;-73
2022/02/06 11:02:29;;;;;;;2.72;1.20;;;6.70;99.90;;;;;;5000267;28;20071;-74
2022/02/06 11:05:08;;;;;;;1.58;0.80;;;6.70;99.90;;;;;;5001604;28;20127;-73
2022/02/06 11:07:34;;;;;;;2.10;1.10;;;6.70;99.90;;;;;;5001635;28;20037;-75
2022/02/06 11:10:12;;;;;;;3.60;1.30;;;6.60;99.90;;;;;;4981412;28;20045;-75
2022/02/06 11:12:40;;;;;;;3.40;2.00;;;6.60;99.90;;;;;;4982697;28;20037;-74
2022/02/06 11:15:25;;;;;;;3.58;1.85;;;6.60;99.90;;;;;;5000202;28;20073;-73
2022/02/06 11:18:11;;;;;;;3.00;1.50;;;6.70;99.90;;;;;;4988537;28;20030;-73
2022/02/06 11:20:38;;;;;;;3.35;1.55;;;6.70;99.90;;;;;;4985555;28;20037;-73
2022/02/06 11:23:04;;;;;;;2.70;1.60;;;6.70;99.90;;;;;;4999101;28;20042;-76
2022/02/06 11:25:32;;;;;;;4.40;1.45;;;6.60;99.90;;;;;;5000213;28;20045;-74
2022/02/06 11:27:59;;;;;;;2.85;1.20;;;6.60;99.90;;;;;;5001470;28;20066;-73
2022/02/06 11:30:24;;;;;;;2.63;1.10;;;6.50;99.90;;;;;;5004290;28;20041;-73
2022/02/06 11:32:52;;;;;;;1.75;1.15;;;6.50;99.90;;;;;;5001003;28;20038;-75
2022/02/06 11:35:22;;;;;;;3.58;1.50;;;6.40;99.90;;;;;;5000796;28;20081;-73
2022/02/06 11:43:58;;;;;;;1.80;0.50;;;6.30;99.90;;;;;;5000273;28;20072;-75
2022/02/06 11:46:32;;;;;;;3.58;0.70;;;6.20;99.90;;;;;;5001846;28;20030;-74
2022/02/06 11:49:25;;;;;;;1.10;0.60;;;6.10;99.90;;;;;;4997565;28;20037;-73
2022/02/06 11:51:56;;;;;;;5.25;0.63;;;6.00;99.90;;;;;;4996145;28;20582;-74
2022/02/06 11:54:45;;;;;;;1.27;0.60;;;6.00;99.90;;;;;;5000515;28;20037;-74
2022/02/06 11:57:17;;;;;;;1.60;0.80;;;6.00;99.90;;;;;;5008486;28;20028;-74
2022/02/06 12:00:14;;;;;;;1.40;0.60;;;6.00;99.90;;;;;;4989724;28;20113;-75
2022/02/06 12:02:42;;;;;;;1.63;1.02;;;6.00;99.90;;;;;;4998245;28;20045;-74
2022/02/06 12:05:17;;;;;;;4.10;1.02;;;6.00;99.90;;;;;;4997572;28;20395;-73
2022/02/06 12:07:52;;;;;;;1.05;0.60;;;6.00;99.90;;;;;;4997658;28;20030;-72
2022/02/06 12:10:22;;;;;;;95.13;45.42;;;5.90;99.90;;;;;;4998995;28;20234;-71
2022/02/06 12:13:26;;;;;;;187.23;93.70;;;5.90;99.90;;;;;;5001223;28;20030;-74
2022/02/06 12:16:04;;;;;;;485.73;274.02;;;5.90;99.90;;;;;;4999925;28;20281;-72
2022/02/06 12:18:32;;;;;;;7.72;5.70;;;5.80;99.90;;;;;;4997010;28;20037;-72
2022/02/06 12:21:12;;;;;;;2.63;0.70;;;5.80;99.90;;;;;;4994931;28;20055;-73
2022/02/06 12:23:44;;;;;;;2.25;0.50;;;5.80;99.90;;;;;;4996778;28;20033;-73
2022/02/06 12:28:56;;;;;;;1.83;0.20;;;5.60;99.90;;;;;;4999676;28;20165;-74
2022/02/06 12:31:33;;;;;;;0.40;0.30;;;5.50;99.90;;;;;;4981992;28;20380;-77
2022/02/06 12:39:32;;;;;;;1.13;0.30;;;5.30;99.90;;;;;;4997876;28;20034;-74
2022/02/06 12:41:59;;;;;;;0.57;0.30;;;5.20;99.90;;;;;;5007516;23;20051;-75
2022/02/06 12:44:27;;;;;;;1.27;0.35;;;5.10;99.90;;;;;;4978989;28;20394;-75
2022/02/06 12:46:59;;;;;;;1.13;0.50;;;5.00;99.90;;;;;;4980306;28;20105;-76
2022/02/06 12:49:34;;;;;;;1.15;0.60;;;5.10;99.90;;;;;;4979988;28;20030;-74
2022/02/06 12:52:01;;;;;;;1.08;0.60;;;5.10;99.90;;;;;;4976894;28;20081;-76
2022/02/06 12:54:28;;;;;;;1.70;0.60;;;5.00;99.90;;;;;;4978446;28;20038;-76
2022/02/06 12:56:56;;;;;;;1.27;1.00;;;5.00;99.90;;;;;;4980284;28;20396;-76
2022/02/06 12:59:23;;;;;;;4.18;0.70;;;5.00;99.90;;;;;;4978825;28;20085;-76
2022/02/06 13:01:50;;;;;;;1.00;0.55;;;5.00;99.90;;;;;;4978304;28;20026;-76
2022/02/06 13:04:26;;;;;;;0.95;0.65;;;4.90;99.90;;;;;;4979943;28;20038;-75
2022/02/06 13:06:53;;;;;;;1.48;0.88;;;4.90;99.90;;;;;;4980609;28;20099;-76
2022/02/06 13:09:24;;;;;;;0.55;0.20;;;4.90;99.90;;;;;;4977588;28;20105;-76
2022/02/06 13:12:00;;;;;;;1.65;0.70;;;4.80;99.90;;;;;;4978427;28;20026;-75
2022/02/06 13:14:46;;;;;;;1.30;0.43;;;4.70;99.90;;;;;;4979196;28;20027;-74
2022/02/06 13:20:24;;;;;;;2.03;0.60;;;4.60;99.90;;;;;;4909831;28;20108;-76
2022/02/06 13:25:59;;;;;;;1.80;1.13;;;4.70;99.90;;;;;;4984304;28;20038;-75
2022/02/06 13:36:39;;;;;;;1.77;0.50;;;4.80;99.90;;;;;;4980691;28;20030;-76
2022/02/06 13:39:12;;;;;;;1.85;0.70;;;4.70;99.90;;;;;;4982733;28;20527;-75
2022/02/06 13:41:38;;;;;;;2.15;0.50;;;4.70;99.90;;;;;;4981839;28;20026;-76
2022/02/06 13:44:13;;;;;;;2.65;0.70;;;4.70;99.90;;;;;;4983901;28;20365;-75
2022/02/06 13:46:40;;;;;;;1.45;0.82;;;4.60;99.90;;;;;;4985633;28;20030;-76
2022/02/06 13:49:08;;;;;;;1.00;0.50;;;4.60;99.90;;;;;;4983846;28;20034;-76
2022/02/06 13:51:44;;;;;;;2.78;1.08;;;4.60;99.90;;;;;;4983071;28;20038;-76
2022/02/06 13:54:10;;;;;;;3.40;0.80;;;4.60;99.90;;;;;;4981093;28;20031;-76
2022/02/06 13:56:36;;;;;;;1.30;0.45;;;4.60;99.90;;;;;;4982094;28;20030;-75
2022/02/06 13:59:05;;;;;;;1.02;0.60;;;4.50;99.90;;;;;;4981078;28;20570;-76
2022/02/06 14:01:37;;;;;;;1.52;0.70;;;4.50;99.90;;;;;;4982727;28;20031;-76
2022/02/06 14:04:04;;;;;;;0.82;0.50;;;4.50;99.90;;;;;;4981975;28;20078;-77
2022/02/06 14:06:40;;;;;;;2.70;0.60;;;4.50;99.90;;;;;;4982460;28;20525;-76
2022/02/06 14:12:24;;;;;;;1.10;0.70;;;4.40;99.90;;;;;;4981378;28;20033;-74
2022/02/06 14:14:50;;;;;;;1.63;0.80;;;4.50;99.90;;;;;;4900117;29;20032;-76
2022/02/06 14:17:30;;;;;;;0.77;0.60;;;4.50;99.90;;;;;;4901199;29;20390;-75
2022/02/06 14:19:58;;;;;;;1.77;0.70;;;4.50;99.90;;;;;;4903189;29;20063;-76
2022/02/06 14:22:33;;;;;;;2.55;0.85;;;4.50;99.90;;;;;;4886405;29;20050;-76
2022/02/06 14:25:15;;;;;;;2.28;1.20;;;4.50;99.90;;;;;;4902231;29;20060;-76
2022/02/06 14:27:45;;;;;;;2.67;1.00;;;4.50;99.90;;;;;;4899320;29;20544;-76
2022/02/06 14:30:30;;;;;;;2.25;0.90;;;4.50;99.90;;;;;;4900194;29;20040;-75
2022/02/06 14:32:59;;;;;;;1.40;0.80;;;4.60;99.90;;;;;;4898902;29;20043;-76
2022/02/06 14:35:46;;;;;;;2.58;1.25;;;4.60;99.90;;;;;;4886510;29;20437;-76
2022/02/06 14:38:22;;;;;;;2.60;1.20;;;4.50;99.90;;;;;;4885046;29;20590;-76
2022/02/06 14:41:06;;;;;;;2.83;0.77;;;4.50;99.90;;;;;;4908050;29;20039;-76
2022/02/06 14:43:37;;;;;;;2.63;1.10;;;4.60;99.90;;;;;;4919573;29;20044;-76
2022/02/06 14:46:04;;;;;;;2.22;0.90;;;4.60;99.90;;;;;;4973989;28;20043;-75
2022/02/06 14:48:30;;;;;;;3.97;1.20;;;4.60;99.90;;;;;;4982175;28;20061;-76
2022/02/06 14:50:56;;;;;;;2.28;1.00;;;4.60;99.90;;;;;;4977523;28;20454;-75
2022/02/06 14:53:23;;;;;;;3.30;1.13;;;4.60;99.90;;;;;;4981193;28;20575;-76
2022/02/06 14:55:51;;;;;;;3.35;0.90;;;4.60;99.90;;;;;;4980126;28;20400;-76
2022/02/06 14:58:17;;;;;;;3.28;0.80;;;4.60;99.90;;;;;;4979974;28;20093;-76
2022/02/06 15:00:43;;;;;;;2.03;1.17;;;4.70;99.90;;;;;;4975872;28;20519;-76
2022/02/06 15:03:29;;;;;;;1.83;1.00;;;4.70;99.90;;;;;;4979907;28;20392;-76
2022/02/06 15:05:55;;;;;;;3.85;1.25;;;4.80;99.90;;;;;;4911604;29;20498;-76
2022/02/06 15:08:21;;;;;;;5.57;1.20;;;4.80;99.90;;;;;;4921357;29;20051;-76
2022/02/06 15:10:48;;;;;;;5.00;1.52;;;4.80;99.90;;;;;;4921413;29;20046;-75
2022/02/06 15:13:14;;;;;;;4.82;1.65;;;4.80;99.90;;;;;;4921514;29;20553;-76
2022/02/06 15:15:46;;;;;;;4.93;1.77;;;4.90;99.90;;;;;;4908348;29;20059;-75
2022/02/06 15:18:23;;;;;;;3.67;1.85;;;4.90;99.90;;;;;;4922021;29;20601;-76
2022/02/06 15:20:54;;;;;;;5.60;2.15;;;4.90;99.90;;;;;;4919346;29;20505;-76
2022/02/06 15:23:21;;;;;;;4.03;1.40;;;4.90;99.90;;;;;;4919785;29;20048;-76
2022/02/06 15:25:47;;;;;;;6.70;1.77;;;4.90;99.90;;;;;;4920335;29;20613;-76
2022/02/06 15:28:13;;;;;;;9.65;2.17;;;5.00;99.90;;;;;;4922092;29;20063;-75
2022/02/06 15:30:39;;;;;;;5.15;1.30;;;5.00;99.90;;;;;;4922608;29;20083;-75
2022/02/06 15:33:05;;;;;;;8.95;1.50;;;5.00;99.90;;;;;;4919474;29;20024;-74
2022/02/06 15:35:32;;;;;;;5.75;1.50;;;5.00;99.90;;;;;;4913303;29;20562;-76
2022/02/06 15:38:00;;;;;;;8.20;2.47;;;5.00;99.90;;;;;;4918897;29;20553;-76
2022/02/06 15:40:27;;;;;;;5.95;1.30;;;5.00;99.90;;;;;;4919455;29;20036;-76